createdAt,value
2022-09-26T10:34:35.317Z,20.90
2022-09-26T10:37:29.433Z,20.80
2022-09-26T10:40:45.539Z,21.20
2022-09-26T10:43:23.634Z,21.10
2022-09-26T10:46:03.829Z,20.10
2022-09-26T10:49:02.205Z,20.50
2022-09-26T10:52:23.842Z,21.30
2022-09-26T10:55:04.532Z,22.40
2022-09-26T10:57:54.949Z,22.80
2022-09-26T11:00:41.513Z,21.90
2022-09-26T11:03:34.739Z,21.00
2022-09-26T11:06:45.344Z,20.30
2022-09-26T11:09:23.475Z,21.00
2022-09-26T11:12:30.998Z,21.90
2022-09-26T11:15:14.998Z,22.40
2022-09-26T11:17:48.493Z,22.10
2022-09-26T11:20:45.899Z,21.40
2022-09-26T11:23:36.685Z,20.90
2022-09-26T11:26:18.936Z,20.00
2022-09-26T11:29:06.300Z,19.90
2022-09-26T11:31:44.298Z,20.70
2022-09-26T11:34:31.481Z,21.70
2022-09-26T11:37:35.226Z,22.00
2022-09-26T11:41:09.588Z,21.60
2022-09-26T11:44:21.775Z,20.80
2022-09-26T11:47:37.127Z,20.10
2022-09-26T11:50:21.420Z,20.30
2022-09-26T11:53:40.739Z,21.30
2022-09-26T11:56:35.575Z,22.40
2022-09-26T11:59:31.717Z,22.70
2022-09-26T12:02:42.509Z,22.80
2022-09-26T12:05:54.905Z,22.80
2022-09-26T12:08:49.557Z,22.50
2022-09-26T12:11:34.284Z,22.40
2022-09-26T12:14:35.325Z,23.00
2022-09-26T12:17:20.414Z,23.40
2022-09-26T12:20:15.007Z,23.30
2022-09-26T12:23:22.684Z,23.10
2022-09-26T12:26:11.270Z,22.70
2022-09-26T12:29:10.418Z,21.40
2022-09-26T12:32:09.775Z,20.40
2022-09-26T12:35:21.775Z,19.20
2022-09-26T12:38:20.674Z,18.30
2022-09-26T12:41:05.085Z,17.70
2022-09-26T12:44:28.706Z,17.30
2022-09-26T12:47:37.217Z,17.10
2022-09-26T12:50:52.475Z,16.90
2022-09-26T12:53:44.573Z,17.00
2022-09-26T12:56:45.624Z,17.20
2022-09-26T13:00:09.519Z,17.20
2022-09-26T13:03:33.302Z,17.40
2022-09-26T13:07:20.275Z,17.60
2022-09-26T13:10:06.608Z,18.00
2022-09-26T13:13:24.895Z,18.20
2022-09-26T13:16:34.430Z,18.00
2022-09-26T13:19:33.279Z,17.80
2022-09-26T13:22:27.654Z,17.40
2022-09-26T13:25:11.613Z,17.10
2022-09-26T13:27:47.204Z,16.90
2022-09-26T13:30:24.432Z,16.60
2022-09-26T13:33:41.819Z,16.50
2022-09-26T13:36:10.511Z,16.30
2022-09-26T13:38:53.107Z,16.20
2022-09-26T13:42:18.075Z,16.10
2022-09-26T13:45:16.942Z,16.10
2022-09-26T13:48:13.958Z,15.90
2022-09-26T13:50:56.200Z,15.80
2022-09-26T13:53:35.036Z,15.80
2022-09-26T13:56:41.695Z,15.80
2022-09-26T13:59:11.962Z,15.80
2022-09-26T14:02:20.016Z,15.70
2022-09-26T14:04:50.322Z,15.60
2022-09-26T14:07:40.894Z,15.60
2022-09-26T14:10:13.565Z,15.60
2022-09-26T14:13:28.523Z,15.60
2022-09-26T14:16:00.419Z,15.60
2022-09-26T14:18:56.341Z,15.60
2022-09-26T14:21:57.992Z,15.60
2022-09-26T14:24:30.926Z,15.60
2022-09-26T14:27:11.943Z,15.60
2022-09-26T14:29:39.368Z,15.50
2022-09-26T14:32:12.490Z,15.50
2022-09-26T14:35:27.122Z,15.50
2022-09-26T14:38:09.820Z,15.40
2022-09-26T14:40:38.214Z,15.30
2022-09-26T14:43:19.079Z,15.30
2022-09-26T14:46:06.418Z,15.20
2022-09-26T14:48:42.139Z,15.20
2022-09-26T14:51:12.792Z,15.10
2022-09-26T14:53:49.244Z,15.10
2022-09-26T14:56:26.347Z,15.10
2022-09-26T14:59:15.491Z,15.00
2022-09-26T15:01:46.791Z,14.90
2022-09-26T15:04:25.675Z,14.90
2022-09-26T15:07:00.511Z,14.80
2022-09-26T15:10:14.381Z,14.80
2022-09-26T15:13:09.235Z,14.70
2022-09-26T15:16:11.187Z,14.70
2022-09-26T15:18:48.928Z,14.70
2022-09-26T15:21:38.000Z,14.60
2022-09-26T15:24:34.315Z,14.60
2022-09-26T15:27:15.308Z,14.60
2022-09-26T15:29:58.230Z,14.50
2022-09-26T15:32:29.596Z,14.50
2022-09-26T15:34:57.779Z,14.40
2022-09-26T15:37:32.954Z,14.50
2022-09-26T15:40:23.812Z,14.40
2022-09-26T15:43:12.395Z,14.40
2022-09-26T15:46:02.550Z,14.40
2022-09-26T15:48:33.705Z,14.30
2022-09-26T15:51:25.869Z,14.30
2022-09-26T15:54:03.257Z,14.20
2022-09-26T15:56:44.720Z,14.10
2022-09-26T15:59:19.393Z,14.10
2022-09-26T16:01:48.943Z,14.10
2022-09-26T16:04:29.933Z,14.10
2022-09-26T16:07:03.534Z,14.10
2022-09-26T16:09:33.803Z,14.10
2022-09-26T16:12:19.234Z,14.10
2022-09-26T16:15:00.098Z,14.10
2022-09-26T16:17:56.310Z,14.10
2022-09-26T16:20:27.532Z,14.00
2022-09-26T16:23:05.117Z,13.90
2022-09-26T16:25:53.621Z,13.80
2022-09-26T16:28:44.843Z,13.80
2022-09-26T16:31:37.148Z,13.80
2022-09-26T16:34:26.151Z,13.70
2022-09-26T16:36:54.310Z,13.70
2022-09-26T16:39:26.954Z,13.70
2022-09-26T16:42:03.089Z,13.70
2022-09-26T16:44:51.160Z,13.70
2022-09-26T16:47:45.632Z,13.60
2022-09-26T16:50:33.600Z,13.60
2022-09-26T16:53:06.987Z,13.60
2022-09-26T16:55:37.638Z,13.60
2022-09-26T16:58:06.293Z,13.60
2022-09-26T17:00:53.938Z,13.60
2022-09-26T17:03:28.398Z,13.50
2022-09-26T17:05:58.068Z,13.50
2022-09-26T17:08:27.241Z,13.50
2022-09-26T17:10:57.542Z,13.50
2022-09-26T17:13:28.271Z,13.50
2022-09-26T17:15:57.568Z,13.40
2022-09-26T17:18:33.371Z,13.40
2022-09-26T17:21:01.846Z,13.40
2022-09-26T17:23:41.588Z,13.40
2022-09-26T17:26:20.184Z,13.40
2022-09-26T17:28:48.179Z,13.30
2022-09-26T17:31:21.487Z,13.30
2022-09-26T17:33:54.069Z,13.30
2022-09-26T17:36:27.431Z,13.30
2022-09-26T17:38:57.898Z,13.30
2022-09-26T17:41:28.041Z,13.30
2022-09-26T17:44:00.617Z,13.30
2022-09-26T17:46:28.449Z,13.30
2022-09-26T17:48:56.514Z,13.20
2022-09-26T17:51:24.497Z,13.20
2022-09-26T17:53:52.719Z,13.20
2022-09-26T17:56:21.079Z,13.20
2022-09-26T17:58:52.133Z,13.20
2022-09-26T18:01:27.334Z,13.20
2022-09-26T18:04:01.435Z,13.20
2022-09-26T18:06:33.246Z,13.20
2022-09-26T18:09:07.728Z,13.10
2022-09-26T18:11:38.459Z,13.10
2022-09-26T18:14:08.261Z,13.10
2022-09-26T18:16:35.826Z,13.10
2022-09-26T18:19:07.529Z,13.00
2022-09-26T18:21:35.741Z,13.10
2022-09-26T18:24:07.150Z,13.10
2022-09-26T18:26:42.359Z,13.00
2022-09-26T18:29:18.009Z,13.00
2022-09-26T18:31:46.694Z,13.00
2022-09-26T18:34:19.032Z,12.90
2022-09-26T18:36:50.411Z,13.00
2022-09-26T18:39:17.904Z,12.90
2022-09-26T18:41:46.132Z,12.90
2022-09-26T18:44:17.746Z,12.90
2022-09-26T18:46:47.328Z,12.90
2022-09-26T18:49:15.790Z,12.90
2022-09-26T18:51:43.864Z,13.00
2022-09-26T18:54:14.989Z,13.00
2022-09-26T18:57:01.906Z,12.90
2022-09-26T18:59:32.324Z,12.90
2022-09-26T19:02:02.111Z,13.00
2022-09-26T19:04:33.594Z,13.00
2022-09-26T19:07:05.868Z,12.90
2022-09-26T19:09:35.264Z,12.90
2022-09-26T19:12:04.046Z,12.90
2022-09-26T19:14:32.415Z,13.00
2022-09-26T19:17:00.522Z,13.00
2022-09-26T19:19:32.649Z,12.90
2022-09-26T19:22:10.751Z,12.90
2022-09-26T19:24:41.375Z,12.90
2022-09-26T19:27:23.925Z,13.00
2022-09-26T19:30:21.419Z,12.90
2022-09-26T19:32:54.133Z,13.00
2022-09-26T19:35:31.096Z,13.00
2022-09-26T19:38:00.486Z,13.00
2022-09-26T19:40:29.213Z,13.00
2022-09-26T19:42:57.490Z,13.10
2022-09-26T19:45:26.304Z,13.10
2022-09-26T19:47:56.007Z,13.10
2022-09-26T19:50:27.234Z,13.10
2022-09-26T19:52:58.672Z,13.20
2022-09-26T19:55:29.663Z,13.20
2022-09-26T19:58:07.515Z,13.20
2022-09-26T20:00:41.621Z,13.20
2022-09-26T20:03:40.118Z,13.20
2022-09-26T20:06:23.521Z,13.20
2022-09-26T20:08:57.657Z,13.10
2022-09-26T20:11:28.307Z,13.10
2022-09-26T20:14:14.831Z,13.10
2022-09-26T20:16:43.363Z,13.00
2022-09-26T20:19:21.464Z,13.00
2022-09-26T20:21:48.879Z,13.00
2022-09-26T20:24:19.129Z,13.00
2022-09-26T20:26:48.174Z,13.00
2022-09-26T20:29:16.792Z,13.00
2022-09-26T20:31:44.665Z,13.00
2022-09-26T20:34:12.323Z,13.00
2022-09-26T20:36:49.099Z,12.90
2022-09-26T20:39:24.088Z,12.90
2022-09-26T20:41:52.725Z,12.90
2022-09-26T20:44:33.698Z,12.90
2022-09-26T20:47:04.847Z,12.90
2022-09-26T20:49:41.689Z,12.80
2022-09-26T20:52:25.650Z,12.80
2022-09-26T20:54:54.774Z,12.90
2022-09-26T20:57:24.024Z,12.80
2022-09-26T20:59:52.274Z,12.80
2022-09-26T21:02:32.546Z,12.80
2022-09-26T21:05:03.533Z,12.80
2022-09-26T21:07:32.543Z,12.70
2022-09-26T21:10:00.258Z,12.70
2022-09-26T21:12:30.434Z,12.70
2022-09-26T21:14:57.818Z,12.60
2022-09-26T21:17:30.622Z,12.60
2022-09-26T21:19:58.124Z,12.60
2022-09-26T21:22:44.600Z,12.60
2022-09-26T21:25:21.821Z,12.50
2022-09-26T21:27:56.220Z,12.50
2022-09-26T21:30:23.795Z,12.50
2022-09-26T21:32:56.462Z,12.50
2022-09-26T21:35:29.370Z,12.50
2022-09-26T21:37:59.183Z,12.40
2022-09-26T21:40:30.020Z,12.50
2022-09-26T21:43:05.681Z,12.50
2022-09-26T21:45:34.081Z,12.50
2022-09-26T21:48:01.873Z,12.50
2022-09-26T21:50:33.499Z,12.50
2022-09-26T21:53:08.628Z,12.60
2022-09-26T21:55:42.942Z,12.60
2022-09-26T21:58:17.009Z,12.60
2022-09-26T22:00:44.625Z,12.60
2022-09-26T22:03:12.241Z,12.60
2022-09-26T22:05:40.096Z,12.60
2022-09-26T22:08:07.504Z,12.60
2022-09-26T22:10:37.105Z,12.60
2022-09-26T22:13:05.242Z,12.60
2022-09-26T22:15:32.607Z,12.60
2022-09-26T22:18:00.027Z,12.60
2022-09-26T22:20:27.480Z,12.60
2022-09-26T22:22:55.755Z,12.50
2022-09-26T22:25:23.153Z,12.60
2022-09-26T22:27:52.211Z,12.50
2022-09-26T22:30:19.715Z,12.50
2022-09-26T22:32:47.235Z,12.50
2022-09-26T22:35:14.539Z,12.50
2022-09-26T22:37:41.868Z,12.60
2022-09-26T22:40:09.749Z,12.60
2022-09-26T22:42:37.537Z,12.50
2022-09-26T22:45:05.437Z,12.50
2022-09-26T22:47:32.784Z,12.50
2022-09-26T22:50:00.212Z,12.50
2022-09-26T22:52:27.746Z,12.40
2022-09-26T22:54:55.511Z,12.40
2022-09-26T22:57:23.395Z,12.40
2022-09-26T22:59:50.804Z,12.40
2022-09-26T23:02:18.063Z,12.30
2022-09-26T23:04:48.427Z,12.30
2022-09-26T23:07:19.874Z,12.30
2022-09-26T23:09:47.455Z,12.30
2022-09-26T23:12:15.009Z,12.30
2022-09-26T23:14:42.350Z,12.30
2022-09-26T23:17:10.180Z,12.30
2022-09-26T23:19:38.276Z,12.20
2022-09-26T23:22:06.011Z,12.20
2022-09-26T23:24:33.498Z,12.20
2022-09-26T23:27:00.963Z,12.10
2022-09-26T23:29:28.434Z,12.10
2022-09-26T23:31:55.845Z,12.00
2022-09-26T23:34:23.196Z,12.00
2022-09-26T23:36:50.753Z,12.00
2022-09-26T23:39:18.858Z,11.90
2022-09-26T23:41:46.205Z,11.90
2022-09-26T23:44:13.913Z,11.90
2022-09-26T23:46:41.485Z,11.90
2022-09-26T23:49:09.091Z,11.90
2022-09-26T23:51:36.783Z,11.80
2022-09-26T23:54:04.362Z,11.90
2022-09-26T23:56:31.653Z,11.80
2022-09-26T23:58:59.061Z,11.80
